Time;durP1;ratioP1;P1;durP2;ratioP2;P2;SDS_P1;SDS_P2;PMS_P1;PMS_P2;Temp;Humidity;BMP_temperature;BMP_pressure;BME280_temperature;BME280_humidity;BME280_pressure;Samples;Min_cycle;Max_cycle;Signal;HPM_P1;HPM_P2
2022/08/08 00:00:10;;;;;;;2.92;2.63;;;14.70;99.90;;;;;;4996539;28;20179;-62
2022/08/08 00:03:02;;;;;;;2.67;2.47;;;14.60;99.90;;;;;;4996415;28;20180;-62
2022/08/08 00:05:41;;;;;;;4.32;2.85;;;14.60;99.90;;;;;;5029295;28;20634;-61
2022/08/08 00:08:22;;;;;;;7.93;2.80;;;14.50;99.90;;;;;;5013783;28;20294;-61
2022/08/08 00:11:22;;;;;;;3.10;2.70;;;14.60;99.90;;;;;;5013875;28;20188;-61
2022/08/08 00:13:59;;;;;;;4.35;3.05;;;14.60;99.90;;;;;;5013924;28;20160;-62
2022/08/08 00:16:46;;;;;;;3.92;2.90;;;14.60;99.90;;;;;;4996195;28;20168;-61
2022/08/08 00:19:25;;;;;;;3.97;3.28;;;14.60;99.90;;;;;;5013907;28;20156;-61
2022/08/08 00:21:58;;;;;;;4.47;3.00;;;14.50;99.90;;;;;;5014047;28;20287;-61
2022/08/08 00:24:36;;;;;;;4.22;2.97;;;14.50;99.90;;;;;;5013803;28;20163;-61
2022/08/08 00:27:06;;;;;;;6.10;3.20;;;14.50;99.90;;;;;;5013866;28;20235;-61
2022/08/08 00:29:39;;;;;;;5.15;3.35;;;14.40;99.90;;;;;;5014115;28;20156;-62
2022/08/08 00:32:19;;;;;;;5.43;3.10;;;14.40;99.90;;;;;;5013504;28;20164;-61
2022/08/08 00:37:47;;;;;;;4.00;3.38;;;14.30;99.90;;;;;;5013803;28;20214;-61
2022/08/08 00:40:12;;;;;;;4.53;3.50;;;14.20;99.90;;;;;;4996626;28;20175;-62
2022/08/08 00:42:59;;;;;;;4.22;3.45;;;14.10;99.90;;;;;;5014032;28;20170;-61
2022/08/08 00:45:53;;;;;;;3.88;3.03;;;14.00;99.90;;;;;;5013680;28;20596;-61
2022/08/08 00:48:38;;;;;;;4.63;3.47;;;13.90;99.90;;;;;;5013779;28;20203;-62
2022/08/08 00:51:25;;;;;;;5.53;3.70;;;13.90;99.90;;;;;;5013463;28;20253;-61
2022/08/08 00:54:31;;;;;;;4.68;3.97;;;13.90;99.90;;;;;;4995920;28;20667;-62
2022/08/08 00:57:10;;;;;;;3.43;3.13;;;13.90;99.90;;;;;;4995760;28;20204;-61
2022/08/08 01:00:07;;;;;;;5.37;3.77;;;14.00;99.90;;;;;;5013927;28;20211;-62
2022/08/08 01:02:57;;;;;;;5.43;4.10;;;13.90;99.90;;;;;;4995838;28;20639;-62
2022/08/08 01:05:44;;;;;;;4.13;3.47;;;13.80;99.90;;;;;;5013818;28;20153;-61
2022/08/08 01:08:28;;;;;;;5.60;3.90;;;13.80;99.90;;;;;;5013278;28;20250;-61
2022/08/08 01:10:54;;;;;;;3.83;3.42;;;13.70;99.90;;;;;;5013717;28;20176;-61
2022/08/08 01:13:59;;;;;;;5.35;3.88;;;13.50;99.90;;;;;;5013320;28;20248;-61
2022/08/08 01:16:55;;;;;;;4.32;3.80;;;13.40;99.90;;;;;;5013224;28;20164;-61
2022/08/08 01:19:43;;;;;;;5.30;3.85;;;13.40;99.90;;;;;;5013314;28;20180;-62
2022/08/08 01:22:27;;;;;;;4.13;3.53;;;13.30;99.90;;;;;;5013375;28;20612;-62
2022/08/08 01:25:04;;;;;;;4.30;3.28;;;13.30;99.90;;;;;;4999204;28;20652;-62
2022/08/08 01:28:07;;;;;;;3.67;3.00;;;13.20;99.90;;;;;;4999226;28;20269;-62
2022/08/08 01:31:17;;;;;;;4.38;3.30;;;13.10;99.90;;;;;;5016716;28;20160;-61
2022/08/08 01:34:16;;;;;;;3.20;2.90;;;13.10;99.90;;;;;;5016787;28;20212;-61
2022/08/08 01:37:12;;;;;;;5.57;3.10;;;13.10;99.90;;;;;;5016605;28;20213;-61
2022/08/08 01:39:56;;;;;;;7.00;3.72;;;13.10;99.90;;;;;;5016664;28;20160;-61
2022/08/08 01:42:52;;;;;;;3.88;3.35;;;13.10;99.90;;;;;;5016485;28;20170;-61
2022/08/08 01:45:46;;;;;;;4.72;3.45;;;13.00;99.90;;;;;;5015745;28;20188;-62
2022/08/08 01:48:59;;;;;;;5.03;3.50;;;13.10;99.90;;;;;;4998779;28;20570;-61
2022/08/08 01:51:50;;;;;;;3.72;3.35;;;13.20;99.90;;;;;;4998877;28;20692;-61
2022/08/08 01:54:53;;;;;;;3.33;2.95;;;13.10;99.90;;;;;;5031516;28;20259;-61
2022/08/08 01:57:31;;;;;;;4.88;3.40;;;13.10;99.90;;;;;;5016400;28;20254;-60
2022/08/08 02:00:11;;;;;;;3.95;3.47;;;13.10;99.90;;;;;;4998559;28;20264;-61
2022/08/08 02:03:15;;;;;;;4.57;3.40;;;13.10;99.90;;;;;;5016458;28;20177;-61
2022/08/08 02:06:05;;;;;;;5.53;3.40;;;13.10;99.90;;;;;;5016192;28;20175;-61
2022/08/08 02:08:58;;;;;;;5.27;3.30;;;13.10;99.90;;;;;;5015912;28;20255;-61
2022/08/08 02:11:38;;;;;;;4.37;3.40;;;13.10;99.90;;;;;;5016249;28;20618;-61
2022/08/08 02:14:49;;;;;;;6.13;3.90;;;13.10;99.90;;;;;;4998956;28;20175;-61
2022/08/08 02:17:39;;;;;;;6.87;3.70;;;13.00;99.90;;;;;;4992760;28;20581;-62
2022/08/08 02:20:17;;;;;;;5.33;3.97;;;12.90;99.90;;;;;;5016630;28;20160;-61
2022/08/08 02:23:10;;;;;;;9.67;3.70;;;12.80;99.90;;;;;;5016171;28;20164;-61
2022/08/08 02:25:47;;;;;;;4.70;3.40;;;12.70;99.90;;;;;;5015897;28;20171;-61
2022/08/08 02:28:18;;;;;;;4.67;3.47;;;12.70;99.90;;;;;;5015596;28;20207;-61
2022/08/08 02:30:52;;;;;;;3.70;3.40;;;12.60;99.90;;;;;;5015604;28;20164;-62
2022/08/08 02:33:45;;;;;;;4.37;3.67;;;12.50;99.90;;;;;;5015654;28;20160;-61
2022/08/08 02:36:23;;;;;;;3.77;3.30;;;12.40;99.90;;;;;;5015575;28;20243;-61
2022/08/08 02:39:29;;;;;;;4.27;3.77;;;12.40;99.90;;;;;;5015455;28;20254;-62
2022/08/08 02:42:20;;;;;;;5.43;3.63;;;12.40;99.90;;;;;;5015655;28;20490;-61
2022/08/08 02:45:20;;;;;;;5.20;3.50;;;12.30;99.90;;;;;;5015365;28;20172;-61
2022/08/08 02:48:08;;;;;;;4.80;3.40;;;12.30;99.90;;;;;;5014889;28;20238;-61
2022/08/08 02:51:21;;;;;;;3.90;3.27;;;12.20;99.90;;;;;;5015266;28;20684;-60
2022/08/08 02:53:58;;;;;;;6.20;3.80;;;12.20;99.90;;;;;;5015150;28;20172;-61
2022/08/08 02:56:26;;;;;;;4.87;3.57;;;12.20;99.90;;;;;;5015233;28;20180;-61
2022/08/08 02:59:14;;;;;;;4.90;3.60;;;12.30;99.90;;;;;;5015014;28;20199;-61
2022/08/08 03:02:07;;;;;;;3.90;3.50;;;12.30;99.90;;;;;;4997210;28;20211;-62
2022/08/08 03:04:50;;;;;;;5.40;3.93;;;12.30;99.90;;;;;;5015224;28;20160;-61
2022/08/08 03:07:28;;;;;;;9.63;4.50;;;12.30;99.90;;;;;;4997220;28;20270;-61
2022/08/08 03:10:18;;;;;;;4.93;3.90;;;12.20;99.90;;;;;;5014894;28;20156;-61
2022/08/08 03:12:59;;;;;;;4.97;4.03;;;12.20;99.90;;;;;;5015169;28;20160;-61
2022/08/08 03:15:55;;;;;;;8.33;4.20;;;12.10;99.90;;;;;;5014668;28;20164;-61
2022/08/08 03:18:42;;;;;;;5.17;4.47;;;12.20;99.90;;;;;;5014747;28;20196;-62
2022/08/08 03:21:08;;;;;;;6.83;4.27;;;12.10;99.90;;;;;;4999628;28;20156;-61
2022/08/08 03:23:34;;;;;;;5.77;4.10;;;12.00;99.90;;;;;;4997018;28;20187;-61
2022/08/08 03:26:00;;;;;;;5.87;4.10;;;12.00;99.90;;;;;;5014587;28;20188;-61
2022/08/08 03:28:26;;;;;;;4.30;3.90;;;12.00;99.90;;;;;;5014660;28;20211;-61
2022/08/08 03:30:52;;;;;;;4.30;3.90;;;11.90;99.90;;;;;;5014324;28;20179;-61
2022/08/08 03:33:18;;;;;;;4.43;3.60;;;11.90;99.90;;;;;;4996820;28;20180;-61
2022/08/08 03:35:47;;;;;;;3.77;3.47;;;11.80;99.90;;;;;;5014649;28;20695;-62
2022/08/08 03:38:13;;;;;;;5.37;4.20;;;11.80;99.90;;;;;;5029850;28;20303;-63
2022/08/08 03:40:39;;;;;;;3.90;3.50;;;11.70;99.90;;;;;;5017252;28;20172;-63
2022/08/08 03:43:09;;;;;;;4.23;3.83;;;11.70;99.90;;;;;;4999328;28;20180;-63
2022/08/08 03:45:35;;;;;;;4.67;3.67;;;11.70;99.90;;;;;;5016531;28;20172;-63
2022/08/08 03:48:07;;;;;;;4.27;3.80;;;11.60;99.90;;;;;;5016839;28;20245;-63
2022/08/08 03:50:34;;;;;;;3.90;3.60;;;11.70;99.90;;;;;;5015582;28;20170;-61
2022/08/08 03:53:06;;;;;;;5.53;4.07;;;11.80;99.90;;;;;;5013997;28;20175;-62
2022/08/08 03:55:36;;;;;;;5.20;3.77;;;11.80;99.90;;;;;;5014480;28;20234;-61
2022/08/08 03:58:02;;;;;;;4.30;3.87;;;11.80;99.90;;;;;;5014055;28;20282;-62
2022/08/08 04:00:29;;;;;;;4.60;4.00;;;11.80;99.90;;;;;;5013880;28;20214;-63
2022/08/08 04:03:00;;;;;;;4.43;4.03;;;11.80;99.90;;;;;;5014030;28;20191;-61
2022/08/08 04:05:27;;;;;;;3.90;3.57;;;11.70;99.90;;;;;;5013995;28;20171;-62
2022/08/08 04:07:53;;;;;;;5.53;4.13;;;11.70;99.90;;;;;;4996165;28;20589;-62
2022/08/08 04:10:19;;;;;;;5.27;3.70;;;11.80;99.90;;;;;;4996440;28;20297;-61
2022/08/08 04:12:45;;;;;;;7.83;4.20;;;11.80;99.90;;;;;;5014137;28;20172;-62
2022/08/08 04:15:11;;;;;;;8.10;3.93;;;11.80;99.90;;;;;;5013900;28;20187;-61
2022/08/08 04:17:37;;;;;;;5.37;4.03;;;11.80;99.90;;;;;;5013585;28;20188;-61
2022/08/08 04:20:03;;;;;;;5.07;4.43;;;11.80;99.90;;;;;;5014478;28;20170;-61
2022/08/08 04:22:29;;;;;;;5.67;4.13;;;11.70;99.90;;;;;;5013883;28;20172;-61
2022/08/08 04:24:55;;;;;;;4.80;4.10;;;11.60;99.90;;;;;;5013871;28;20245;-61
2022/08/08 04:27:21;;;;;;;4.83;4.10;;;11.50;99.90;;;;;;5014082;28;20235;-62
2022/08/08 04:29:47;;;;;;;5.13;4.50;;;11.40;99.90;;;;;;5013751;28;20172;-62
2022/08/08 04:32:13;;;;;;;6.27;4.57;;;11.40;99.90;;;;;;5013570;28;20172;-61
2022/08/08 04:34:42;;;;;;;6.00;4.73;;;11.40;99.90;;;;;;5013532;28;20629;-61
2022/08/08 04:37:08;;;;;;;5.27;4.57;;;11.40;99.90;;;;;;5013786;28;20195;-61
2022/08/08 04:39:34;;;;;;;6.20;4.00;;;11.50;99.90;;;;;;5013849;28;20188;-62
2022/08/08 04:42:00;;;;;;;4.50;4.10;;;11.50;99.90;;;;;;5014304;28;20194;-62
2022/08/08 04:44:26;;;;;;;6.00;4.43;;;11.60;99.90;;;;;;5013920;28;20186;-62
2022/08/08 04:46:52;;;;;;;5.23;4.50;;;11.60;99.90;;;;;;5013705;28;20279;-62
2022/08/08 04:49:17;;;;;;;5.67;4.63;;;11.60;99.90;;;;;;5014017;28;20247;-62
2022/08/08 04:51:43;;;;;;;5.50;4.50;;;11.70;99.90;;;;;;4996171;28;20262;-62
2022/08/08 04:54:09;;;;;;;4.67;4.00;;;11.70;99.90;;;;;;5013653;28;20259;-62
2022/08/08 04:56:35;;;;;;;5.20;4.10;;;11.80;99.90;;;;;;4996397;28;20230;-62
2022/08/08 04:59:01;;;;;;;6.13;4.83;;;11.80;99.90;;;;;;5017854;28;20184;-62
2022/08/08 05:01:26;;;;;;;5.47;3.80;;;11.90;99.90;;;;;;5018049;28;20180;-61
2022/08/08 05:03:52;;;;;;;7.30;3.93;;;11.90;99.90;;;;;;5017783;28;20311;-62
2022/08/08 05:06:18;;;;;;;7.90;5.50;;;11.90;99.90;;;;;;5000146;28;20176;-61
2022/08/08 05:08:45;;;;;;;6.23;3.87;;;11.90;99.90;;;;;;5017499;28;20668;-61
2022/08/08 05:11:12;;;;;;;4.80;4.17;;;11.90;99.90;;;;;;5018332;28;20613;-62
2022/08/08 05:13:39;;;;;;;4.63;4.17;;;11.90;99.90;;;;;;5017401;28;20179;-62
2022/08/08 05:16:05;;;;;;;6.67;4.30;;;11.90;99.90;;;;;;5032286;28;20204;-61
2022/08/08 05:18:32;;;;;;;5.90;4.97;;;12.00;99.90;;;;;;5017197;28;20214;-61
2022/08/08 05:21:01;;;;;;;6.17;4.37;;;12.00;99.90;;;;;;5017449;28;20186;-61
2022/08/08 05:23:27;;;;;;;5.77;4.30;;;12.10;99.90;;;;;;5017654;28;20692;-62
2022/08/08 05:25:53;;;;;;;5.80;4.27;;;12.10;99.90;;;;;;5017165;28;20201;-61
2022/08/08 05:28:19;;;;;;;6.30;4.80;;;12.10;99.90;;;;;;5016701;28;20720;-61
2022/08/08 05:30:45;;;;;;;4.43;4.00;;;12.20;99.90;;;;;;4998929;28;20551;-62
2022/08/08 05:33:11;;;;;;;5.67;4.40;;;12.20;99.90;;;;;;4998958;28;20191;-61
2022/08/08 05:35:41;;;;;;;5.23;4.73;;;12.30;99.90;;;;;;5031979;28;20196;-62
2022/08/08 05:38:11;;;;;;;5.83;4.60;;;12.30;99.90;;;;;;5016521;28;20215;-61
2022/08/08 05:40:38;;;;;;;8.10;5.13;;;12.40;99.90;;;;;;5031762;28;20188;-62
2022/08/08 05:43:07;;;;;;;5.75;4.75;;;12.50;99.90;;;;;;5016548;28;20263;-62
2022/08/08 05:45:37;;;;;;;6.43;4.60;;;12.50;99.90;;;;;;5016375;28;20592;-62
2022/08/08 05:48:04;;;;;;;7.73;4.70;;;12.60;99.90;;;;;;5015975;28;20204;-62
2022/08/08 05:50:31;;;;;;;7.63;5.43;;;12.70;99.90;;;;;;5016265;28;20180;-62
2022/08/08 05:52:57;;;;;;;5.97;4.93;;;12.70;99.90;;;;;;5016210;28;20172;-62
2022/08/08 05:55:23;;;;;;;6.00;4.80;;;12.80;99.90;;;;;;5016270;28;20179;-62
2022/08/08 05:57:51;;;;;;;8.73;5.40;;;12.90;99.90;;;;;;5016037;28;20245;-62
2022/08/08 06:00:17;;;;;;;6.07;4.80;;;12.90;99.90;;;;;;5016140;28;20593;-62
2022/08/08 06:05:33;;;;;;;6.38;5.00;;;13.10;99.90;;;;;;5016230;28;20234;-62
2022/08/08 06:08:00;;;;;;;5.47;4.77;;;13.20;99.90;;;;;;5015599;28;20692;-62
2022/08/08 06:10:32;;;;;;;7.93;5.32;;;13.30;99.90;;;;;;5015487;28;20163;-62
2022/08/08 06:12:59;;;;;;;7.13;4.90;;;13.40;99.90;;;;;;4998439;28;20238;-62
2022/08/08 06:15:27;;;;;;;10.95;5.38;;;13.50;99.90;;;;;;5015816;28;20176;-62
2022/08/08 06:17:56;;;;;;;8.02;5.45;;;13.60;99.90;;;;;;5015417;28;20199;-62
2022/08/08 06:20:22;;;;;;;6.57;5.03;;;13.70;99.90;;;;;;5016034;28;20531;-62
2022/08/08 06:22:47;;;;;;;7.30;6.00;;;13.90;99.90;;;;;;5015976;28;20180;-62
2022/08/08 06:25:13;;;;;;;6.75;5.60;;;13.90;99.90;;;;;;5016233;28;20208;-62
2022/08/08 06:27:51;;;;;;;6.30;5.00;;;14.00;99.90;;;;;;5015946;28;20618;-62
2022/08/08 06:30:20;;;;;;;6.28;5.10;;;14.20;99.90;;;;;;5015958;28;20610;-62
2022/08/08 06:32:58;;;;;;;7.15;5.05;;;14.30;99.90;;;;;;5015310;28;20659;-62
2022/08/08 06:35:25;;;;;;;8.23;5.45;;;14.40;99.90;;;;;;5015605;28;20167;-62
2022/08/08 06:37:53;;;;;;;7.63;5.55;;;14.40;99.90;;;;;;5015546;28;20710;-62
2022/08/08 06:40:21;;;;;;;6.07;4.20;;;14.60;99.90;;;;;;5015397;28;20176;-62
2022/08/08 06:42:58;;;;;;;6.88;5.10;;;14.70;99.90;;;;;;5015410;28;20178;-62
2022/08/08 06:45:25;;;;;;;6.30;4.85;;;14.80;99.90;;;;;;5015316;28;20612;-62
2022/08/08 06:47:51;;;;;;;9.90;5.35;;;14.90;99.90;;;;;;5015098;28;20208;-62
2022/08/08 06:50:18;;;;;;;8.38;5.78;;;15.00;99.90;;;;;;5015738;28;20172;-62
2022/08/08 06:52:44;;;;;;;8.05;6.13;;;15.10;99.90;;;;;;5015158;28;20148;-62
2022/08/08 06:55:10;;;;;;;6.75;5.22;;;15.20;99.90;;;;;;5015103;28;20200;-63
2022/08/08 06:57:36;;;;;;;8.00;6.07;;;15.20;99.90;;;;;;5015706;28;20238;-62
2022/08/08 07:00:05;;;;;;;9.32;6.47;;;15.40;99.90;;;;;;5016705;28;20267;-62
2022/08/08 07:02:33;;;;;;;8.52;7.05;;;15.50;99.90;;;;;;4997098;28;20179;-62
2022/08/08 07:05:04;;;;;;;9.20;6.57;;;15.50;99.90;;;;;;5014904;28;20715;-62
2022/08/08 07:07:54;;;;;;;10.55;6.25;;;15.60;99.90;;;;;;5029977;28;20601;-62
2022/08/08 07:10:23;;;;;;;8.55;6.10;;;15.80;99.90;;;;;;4997602;28;20539;-62
2022/08/08 07:12:54;;;;;;;8.05;6.72;;;15.90;99.90;;;;;;5015023;28;20172;-62
2022/08/08 07:15:40;;;;;;;9.25;6.85;;;15.90;99.90;;;;;;5015183;28;20242;-62
2022/08/08 07:18:08;;;;;;;7.20;6.05;;;16.10;99.90;;;;;;5014750;28;20258;-62
2022/08/08 07:20:40;;;;;;;10.50;7.20;;;16.20;99.90;;;;;;5013916;28;20186;-62
2022/08/08 07:23:23;;;;;;;10.40;6.80;;;16.20;99.90;;;;;;5015379;28;20179;-62
2022/08/08 07:25:50;;;;;;;9.48;6.57;;;16.40;99.90;;;;;;5014566;28;20649;-62
2022/08/08 07:28:21;;;;;;;9.30;6.53;;;16.50;99.90;;;;;;4996940;28;20639;-62
2022/08/08 07:30:47;;;;;;;8.45;6.15;;;16.60;99.90;;;;;;5014765;28;20157;-62
2022/08/08 07:33:15;;;;;;;7.47;6.45;;;16.70;99.90;;;;;;5014321;28;20681;-62
2022/08/08 07:35:42;;;;;;;7.88;5.78;;;16.90;99.90;;;;;;5014388;28;20175;-62
2022/08/08 07:38:11;;;;;;;10.27;6.00;;;17.00;99.90;;;;;;5014559;28;20203;-62
2022/08/08 07:40:37;;;;;;;8.82;5.53;;;17.10;99.90;;;;;;5014225;28;20710;-62
2022/08/08 07:43:05;;;;;;;7.78;5.88;;;17.20;99.90;;;;;;5014448;28;20211;-62
2022/08/08 07:45:31;;;;;;;8.02;5.45;;;17.40;99.90;;;;;;5014246;28;20183;-62
2022/08/08 07:47:57;;;;;;;7.38;6.22;;;17.50;99.90;;;;;;4996210;28;20677;-62
2022/08/08 07:50:26;;;;;;;7.40;5.20;;;17.60;99.90;;;;;;5014294;28;20164;-62
2022/08/08 07:52:58;;;;;;;6.82;5.10;;;17.70;99.90;;;;;;5014119;28;20176;-62
2022/08/08 07:55:27;;;;;;;7.32;5.72;;;17.80;99.90;;;;;;5014478;28;20182;-62
2022/08/08 07:58:00;;;;;;;6.55;4.85;;;17.90;99.90;;;;;;5013906;28;20214;-61
2022/08/08 08:00:38;;;;;;;6.40;4.90;;;18.00;99.90;;;;;;5014517;28;20223;-62
2022/08/08 08:03:09;;;;;;;5.78;4.05;;;18.10;99.90;;;;;;4996204;28;20182;-62
2022/08/08 08:05:43;;;;;;;7.25;5.13;;;18.10;99.90;;;;;;5014637;28;20203;-62
2022/08/08 08:08:17;;;;;;;6.63;4.88;;;18.20;99.90;;;;;;5028963;28;20211;-63
2022/08/08 08:10:44;;;;;;;7.68;4.72;;;18.30;99.90;;;;;;5013841;28;20172;-62
2022/08/08 08:13:39;;;;;;;5.78;4.90;;;18.40;99.90;;;;;;5014084;28;20152;-62
2022/08/08 08:16:17;;;;;;;6.65;4.47;;;18.40;99.90;;;;;;5014032;28;20167;-62
2022/08/08 08:18:47;;;;;;;5.18;4.28;;;18.50;99.90;;;;;;5014082;28;20196;-63
2022/08/08 08:21:15;;;;;;;5.57;4.55;;;18.60;99.90;;;;;;4996247;28;20179;-62
2022/08/08 08:23:41;;;;;;;7.00;4.35;;;18.70;99.90;;;;;;5014161;28;20172;-62
2022/08/08 08:26:07;;;;;;;6.03;3.83;;;18.80;99.90;;;;;;5013978;28;20184;-62
2022/08/08 08:28:32;;;;;;;6.43;4.30;;;18.80;99.90;;;;;;5013534;28;20203;-62
2022/08/08 08:31:03;;;;;;;6.22;4.38;;;18.90;99.90;;;;;;5013661;28;20199;-62
2022/08/08 08:33:29;;;;;;;7.03;5.18;;;19.00;99.90;;;;;;5019687;28;20155;-63
2022/08/08 08:35:55;;;;;;;7.53;4.05;;;19.20;99.90;;;;;;5035231;28;20175;-62
2022/08/08 08:38:21;;;;;;;5.55;4.28;;;19.30;99.90;;;;;;5019916;28;20214;-62
2022/08/08 08:40:48;;;;;;;6.78;4.18;;;19.40;99.90;;;;;;5020293;28;20688;-62
2022/08/08 08:43:19;;;;;;;8.70;4.55;;;19.50;99.90;;;;;;5020028;28;20182;-65
2022/08/08 08:45:47;;;;;;;6.25;4.15;;;19.60;99.90;;;;;;5020084;28;20196;-65
2022/08/08 08:48:16;;;;;;;8.20;4.72;;;19.70;99.90;;;;;;5019636;28;20202;-65
2022/08/08 08:50:45;;;;;;;6.88;4.90;;;19.90;99.90;;;;;;5020158;28;20171;-65
2022/08/08 08:53:12;;;;;;;7.43;4.60;;;20.00;99.90;;;;;;5035124;28;20183;-65
2022/08/08 08:55:39;;;;;;;8.13;4.90;;;20.10;99.90;;;;;;5020052;28;20176;-65
2022/08/08 08:58:07;;;;;;;8.27;4.63;;;20.30;99.90;;;;;;5019834;28;20192;-65
2022/08/08 09:00:36;;;;;;;6.65;4.20;;;20.40;99.90;;;;;;5019892;28;20180;-65
2022/08/08 09:03:08;;;;;;;8.98;4.68;;;20.60;99.90;;;;;;5001962;28;20176;-65
2022/08/08 09:05:38;;;;;;;8.10;5.80;;;20.70;99.90;;;;;;5020243;28;20168;-65
2022/08/08 09:08:06;;;;;;;6.88;4.53;;;21.00;99.90;;;;;;5019992;28;20706;-65
2022/08/08 09:10:36;;;;;;;9.32;4.57;;;21.10;99.90;;;;;;5020007;28;20160;-66
2022/08/08 09:13:02;;;;;;;7.95;4.70;;;21.30;99.90;;;;;;5035015;28;20621;-65
2022/08/08 09:15:29;;;;;;;9.77;5.15;;;21.40;99.90;;;;;;5019944;28;20172;-65
2022/08/08 09:17:56;;;;;;;7.45;4.50;;;21.60;99.90;;;;;;5019352;28;20191;-65
2022/08/08 09:20:26;;;;;;;10.48;4.93;;;21.70;99.90;;;;;;5019876;28;20255;-65
2022/08/08 09:22:55;;;;;;;9.10;4.95;;;21.80;99.90;;;;;;5019585;28;20206;-65
2022/08/08 09:25:21;;;;;;;7.40;4.35;;;21.80;99.90;;;;;;5002036;28;20211;-65
2022/08/08 09:27:47;;;;;;;5.45;4.07;;;21.80;99.90;;;;;;5019495;28;20226;-65
2022/08/08 09:30:15;;;;;;;7.22;4.63;;;22.00;99.90;;;;;;5001878;28;20644;-65
2022/08/08 09:32:51;;;;;;;5.20;3.60;;;22.10;99.90;;;;;;5019419;28;20175;-65
2022/08/08 09:35:21;;;;;;;8.70;4.63;;;22.30;99.90;;;;;;5019845;28;20167;-66
2022/08/08 09:37:53;;;;;;;7.63;5.05;;;22.50;99.90;;;;;;5020030;28;20215;-62
2022/08/08 09:40:23;;;;;;;12.52;4.30;;;22.60;99.90;;;;;;5019798;28;20164;-63
2022/08/08 09:43:19;;;;;;;6.40;4.00;;;22.60;99.90;;;;;;5001356;28;20202;-62
2022/08/08 09:46:01;;;;;;;7.03;4.32;;;22.70;99.90;;;;;;5031675;28;20175;-62
2022/08/08 09:48:32;;;;;;;7.18;4.13;;;22.80;99.90;;;;;;5016105;28;20207;-62
2022/08/08 09:50:58;;;;;;;5.30;3.90;;;23.00;99.90;;;;;;5016250;28;20206;-62
2022/08/08 09:53:34;;;;;;;5.20;3.70;;;23.20;99.90;;;;;;5016546;28;20164;-62
2022/08/08 09:56:03;;;;;;;6.60;4.07;;;23.30;99.90;;;;;;5016238;28;20613;-66
2022/08/08 09:58:36;;;;;;;6.32;4.32;;;23.50;99.90;;;;;;4998478;28;20203;-66
2022/08/08 10:01:04;;;;;;;4.72;3.80;;;23.70;99.90;;;;;;5016590;28;20156;-66
2022/08/08 10:03:35;;;;;;;7.60;4.97;;;23.70;99.90;;;;;;5015752;28;20183;-66
2022/08/08 10:06:12;;;;;;;7.47;4.47;;;23.70;99.90;;;;;;5016293;28;20168;-62
2022/08/08 10:08:50;;;;;;;5.78;3.40;;;23.80;99.90;;;;;;5031356;28;20231;-62
2022/08/08 10:11:18;;;;;;;4.32;3.50;;;23.90;99.90;;;;;;5016393;28;20652;-63
2022/08/08 10:14:03;;;;;;;3.20;2.70;;;23.90;99.90;;;;;;5016028;28;20232;-62
2022/08/08 10:16:37;;;;;;;5.07;3.10;;;23.90;99.90;;;;;;5016305;28;20287;-63
2022/08/08 10:19:05;;;;;;;4.57;3.15;;;24.00;99.90;;;;;;5031084;28;20187;-63
2022/08/08 10:21:34;;;;;;;4.68;3.35;;;24.20;99.90;;;;;;5015691;28;20199;-62
2022/08/08 10:24:08;;;;;;;6.03;4.43;;;24.00;99.90;;;;;;5015817;28;20176;-62
2022/08/08 10:27:02;;;;;;;8.27;4.13;;;24.10;99.90;;;;;;5015994;28;20526;-62
2022/08/08 10:29:43;;;;;;;6.82;4.10;;;24.00;99.90;;;;;;5012995;28;20683;-62
2022/08/08 10:34:59;;;;;;;3.92;3.17;;;24.00;99.90;;;;;;5015925;28;20167;-63
2022/08/08 10:37:27;;;;;;;6.75;3.95;;;24.10;99.90;;;;;;5015632;28;20286;-62
2022/08/08 10:39:55;;;;;;;6.03;3.55;;;24.10;99.90;;;;;;5015555;28;20196;-63
2022/08/08 10:42:23;;;;;;;3.78;3.00;;;24.00;99.90;;;;;;5015393;28;20255;-62
2022/08/08 10:44:59;;;;;;;3.08;2.70;;;24.00;99.90;;;;;;5015464;28;20560;-62
2022/08/08 10:47:25;;;;;;;5.45;3.10;;;24.20;99.90;;;;;;5014981;28;20656;-63
2022/08/08 10:49:52;;;;;;;3.88;2.92;;;24.20;99.90;;;;;;4997996;28;20238;-62
2022/08/08 10:52:34;;;;;;;4.45;2.90;;;24.30;99.90;;;;;;5015376;28;20191;-64
2022/08/08 10:55:09;;;;;;;4.43;2.97;;;24.20;99.90;;;;;;5015127;28;20183;-63
2022/08/08 10:57:49;;;;;;;5.22;3.50;;;24.30;99.90;;;;;;4997734;28;20222;-63
2022/08/08 11:00:24;;;;;;;3.97;2.90;;;24.30;99.90;;;;;;5015236;28;20535;-62
2022/08/08 11:02:51;;;;;;;6.55;2.95;;;24.40;99.90;;;;;;5015065;28;20786;-62
2022/08/08 11:05:17;;;;;;;5.07;3.33;;;24.60;99.90;;;;;;5014889;28;20217;-62
2022/08/08 11:07:48;;;;;;;6.05;3.42;;;24.60;99.90;;;;;;5014670;28;20277;-62
2022/08/08 11:10:19;;;;;;;5.22;3.33;;;24.70;99.90;;;;;;5015167;28;20160;-62
2022/08/08 11:12:46;;;;;;;5.22;3.15;;;24.80;99.90;;;;;;4997303;28;20164;-62
2022/08/08 11:15:20;;;;;;;6.13;3.92;;;25.00;99.90;;;;;;5014916;28;20168;-62
2022/08/08 11:17:47;;;;;;;3.78;3.15;;;25.10;99.90;;;;;;5015577;28;20204;-65
2022/08/08 11:20:18;;;;;;;4.15;3.10;;;25.20;99.90;;;;;;5015836;28;20174;-63
2022/08/08 11:22:49;;;;;;;5.50;3.53;;;25.40;99.90;;;;;;5016184;28;20188;-64
2022/08/08 11:25:17;;;;;;;6.43;3.17;;;25.50;99.90;;;;;;4998146;28;20183;-63
2022/08/08 11:27:49;;;;;;;4.95;3.67;;;25.60;99.90;;;;;;5015756;28;20577;-65
2022/08/08 11:30:15;;;;;;;6.30;3.47;;;25.60;99.90;;;;;;5016563;28;20568;-61
2022/08/08 11:32:42;;;;;;;4.55;2.97;;;25.60;99.90;;;;;;5000491;28;20187;-64
2022/08/08 11:35:09;;;;;;;6.82;4.13;;;25.90;99.90;;;;;;5016283;28;20175;-62
2022/08/08 11:37:36;;;;;;;5.05;3.55;;;26.00;99.90;;;;;;5016034;28;20203;-61
2022/08/08 11:40:04;;;;;;;5.82;3.72;;;26.10;99.90;;;;;;5016784;28;20169;-61
2022/08/08 11:42:33;;;;;;;7.88;3.90;;;26.20;99.90;;;;;;5016463;28;20188;-64
2022/08/08 11:45:00;;;;;;;5.72;3.78;;;26.20;99.90;;;;;;5014773;28;20649;-64
2022/08/08 11:47:26;;;;;;;5.95;3.20;;;26.20;99.90;;;;;;5014816;28;20725;-64
2022/08/08 11:49:58;;;;;;;5.70;3.47;;;26.30;99.90;;;;;;5015078;28;20156;-64
2022/08/08 11:52:25;;;;;;;4.15;3.00;;;26.30;99.90;;;;;;5015397;28;20160;-64
2022/08/08 11:54:51;;;;;;;5.55;3.50;;;26.50;99.90;;;;;;5014902;28;20217;-64
2022/08/08 11:57:17;;;;;;;4.72;2.67;;;26.40;99.90;;;;;;5014510;28;20744;-65
2022/08/08 12:00:00;;;;;;;6.30;3.58;;;26.50;99.90;;;;;;5014618;28;20203;-64
2022/08/08 12:02:30;;;;;;;4.95;3.42;;;26.70;99.90;;;;;;5014516;28;20156;-64
2022/08/08 12:05:07;;;;;;;4.50;2.75;;;27.00;99.90;;;;;;5015037;28;20279;-65
2022/08/08 12:07:51;;;;;;;4.63;3.03;;;27.30;99.90;;;;;;4995984;28;20211;-64
2022/08/08 12:10:23;;;;;;;5.28;3.38;;;27.40;99.90;;;;;;5014576;28;20246;-64
2022/08/08 12:12:58;;;;;;;4.82;2.97;;;27.40;99.90;;;;;;5029413;28;20172;-65
2022/08/08 12:15:30;;;;;;;5.25;2.92;;;27.30;99.90;;;;;;5014573;28;20171;-65
2022/08/08 12:17:56;;;;;;;4.13;3.35;;;27.60;99.90;;;;;;4996312;28;20314;-64
2022/08/08 12:20:22;;;;;;;4.40;2.78;;;27.30;99.90;;;;;;4996566;28;20208;-64
2022/08/08 12:22:50;;;;;;;3.33;2.88;;;27.40;99.90;;;;;;5014046;28;20268;-65
2022/08/08 12:25:26;;;;;;;7.03;3.08;;;27.80;99.90;;;;;;5015809;28;20234;-65
2022/08/08 12:28:07;;;;;;;9.68;3.80;;;28.00;99.90;;;;;;5015963;28;20611;-65
2022/08/08 12:30:34;;;;;;;4.18;3.00;;;27.70;99.90;;;;;;5015366;28;20243;-65
2022/08/08 12:33:01;;;;;;;4.07;2.90;;;27.80;99.90;;;;;;5015225;28;20184;-65
2022/08/08 12:35:37;;;;;;;5.30;2.90;;;28.20;99.90;;;;;;5016029;28;20168;-65
2022/08/08 12:38:07;;;;;;;6.32;3.42;;;28.40;99.90;;;;;;5015644;28;20614;-65
2022/08/08 12:40:37;;;;;;;9.45;3.70;;;28.40;99.90;;;;;;5015940;28;20167;-65
2022/08/08 12:43:03;;;;;;;7.43;3.40;;;28.20;99.90;;;;;;5015195;28;20722;-65
2022/08/08 12:45:34;;;;;;;4.10;3.50;;;27.90;99.90;;;;;;5015333;28;20168;-65
2022/08/08 12:48:02;;;;;;;6.53;3.25;;;27.60;99.90;;;;;;5014981;28;20241;-65
2022/08/08 12:50:42;;;;;;;4.57;3.05;;;27.80;99.90;;;;;;5015829;28;20176;-65
2022/08/08 12:53:30;;;;;;;7.53;4.13;;;28.00;99.90;;;;;;4997478;28;20171;-65
2022/08/08 12:56:07;;;;;;;4.50;2.85;;;28.20;99.90;;;;;;5015442;28;20195;-65
2022/08/08 12:58:50;;;;;;;4.95;3.03;;;28.40;99.90;;;;;;5014415;28;20314;-65
2022/08/08 13:01:15;;;;;;;5.20;2.80;;;28.80;99.90;;;;;;4997676;28;20649;-65
2022/08/08 13:03:47;;;;;;;7.32;3.05;;;28.90;99.90;;;;;;4997696;28;20187;-65
2022/08/08 13:06:17;;;;;;;4.13;3.00;;;29.30;99.90;;;;;;5014139;28;20222;-65
2022/08/08 13:08:48;;;;;;;3.67;2.70;;;29.40;99.90;;;;;;4996830;28;20618;-65
2022/08/08 13:11:23;;;;;;;4.30;2.80;;;29.90;99.90;;;;;;5014936;28;20153;-65
2022/08/08 13:14:15;;;;;;;4.57;2.63;;;30.10;99.90;;;;;;4996170;28;20176;-66
2022/08/08 13:16:42;;;;;;;3.53;2.97;;;30.10;99.90;;;;;;5013903;28;20519;-66
2022/08/08 13:19:09;;;;;;;3.97;3.20;;;30.30;99.90;;;;;;4996835;28;20216;-66
2022/08/08 13:21:47;;;;;;;5.13;3.10;;;30.30;99.90;;;;;;5017685;28;20184;-66
2022/08/08 13:24:14;;;;;;;5.10;2.92;;;30.30;99.90;;;;;;4999645;28;20719;-66
2022/08/08 13:26:41;;;;;;;5.28;3.22;;;29.90;99.90;;;;;;5017417;28;20163;-64